Terminal Aerodrome Forecast
Issued by NWS

Home | Current Version | Previous Version | Text Only | Print | Product List | Glossary On
Versions: 1 2 3 4 5 6 7 8 9 10 11 12 13 14 15 16 17 18 19 20 21
991
FTAK31 PAJN 271822 AAA
TAFAKT
TAF AMD
PAKT 271822Z 2718/2818 33008KT P6SM BKN027 OVC080
      TEMPO 2718/2721 SCT027 OVC080
     FM272200 32008KT P6SM SCT025 BKN080
     FM280500 32005KT P6SM BKN025 OVC080
      AMD LTD TO CLD VIS AND WIND 2806/2815=

USA.gov is the U.S. government's official web portal to all federal, state and local government web resources and services.